createdAt,value
2023-03-22T00:01:55.569Z,4.30
2023-03-22T00:04:42.888Z,4.43
2023-03-22T00:07:28.292Z,5.03
2023-03-22T00:10:13.721Z,3.63
2023-03-22T00:13:00.322Z,3.92
2023-03-22T00:15:45.817Z,3.45
2023-03-22T00:18:31.774Z,4.28
2023-03-22T00:21:18.337Z,3.63
2023-03-22T00:24:04.218Z,3.88
2023-03-22T00:26:49.794Z,3.55
2023-03-22T00:29:35.443Z,3.65
2023-03-22T00:32:20.963Z,4.00
2023-03-22T00:35:07.518Z,4.28
2023-03-22T00:37:53.088Z,2.97
2023-03-22T00:40:38.900Z,4.47
2023-03-22T00:43:24.433Z,6.72
2023-03-22T00:46:11.423Z,3.70
2023-03-22T00:48:57.114Z,3.13
2023-03-22T00:51:42.469Z,2.70
2023-03-22T00:54:28.432Z,3.30
2023-03-22T00:57:14.547Z,3.17
2023-03-22T00:59:59.917Z,2.63
2023-03-22T01:02:45.482Z,2.67
2023-03-22T01:05:32.496Z,3.08
2023-03-22T01:08:18.279Z,2.55
2023-03-22T01:11:04.043Z,4.22
2023-03-22T01:13:49.931Z,4.68
2023-03-22T01:16:37.210Z,3.10
2023-03-22T01:19:23.824Z,3.05
2023-03-22T01:22:09.491Z,2.90
2023-03-22T01:24:54.933Z,5.45
2023-03-22T01:27:40.403Z,4.57
2023-03-22T01:30:25.804Z,2.58
2023-03-22T01:33:11.212Z,2.67
2023-03-22T01:35:56.938Z,2.28
2023-03-22T01:38:42.469Z,2.70
2023-03-22T01:41:28.065Z,3.03
2023-03-22T01:44:21.115Z,3.83
2023-03-22T01:47:10.923Z,2.97
2023-03-22T01:49:56.559Z,3.45
2023-03-22T01:52:42.044Z,3.75
2023-03-22T01:55:28.206Z,2.97
2023-03-22T01:58:16.576Z,3.33
2023-03-22T02:01:05.450Z,3.58
2023-03-22T02:03:58.702Z,4.85
2023-03-22T02:06:45.338Z,4.93
2023-03-22T02:09:30.764Z,4.22
2023-03-22T02:12:33.941Z,2.80
2023-03-22T02:15:29.858Z,3.25
2023-03-22T02:18:49.590Z,2.65
2023-03-22T02:22:13.291Z,2.85
2023-03-22T02:25:28.063Z,2.70
2023-03-22T02:28:49.245Z,2.35
2023-03-22T02:32:17.318Z,2.10
2023-03-22T02:36:26.256Z,2.03
2023-03-22T02:39:28.836Z,3.45
2023-03-22T02:42:50.503Z,1.73
2023-03-22T02:46:07.283Z,1.80
2023-03-22T02:49:02.502Z,2.33
2023-03-22T02:52:00.088Z,3.75
2023-03-22T02:55:29.638Z,6.00
2023-03-22T02:58:46.957Z,2.47
2023-03-22T03:01:55.926Z,2.13
2023-03-22T03:04:48.286Z,1.75
2023-03-22T03:07:34.924Z,1.80
2023-03-22T03:10:21.379Z,1.70
2023-03-22T03:13:13.761Z,1.60
2023-03-22T03:16:01.522Z,1.65
2023-03-22T03:19:14.073Z,2.38
2023-03-22T03:22:37.161Z,1.85
2023-03-22T03:25:51.615Z,1.83
2023-03-22T03:28:52.156Z,2.05
2023-03-22T03:31:51.633Z,1.98
2023-03-22T03:34:52.348Z,1.77
2023-03-22T03:37:51.420Z,6.15
2023-03-22T03:41:00.822Z,3.03
2023-03-22T03:43:48.466Z,2.35
2023-03-22T03:46:33.889Z,4.00
2023-03-22T03:49:20.750Z,2.80
2023-03-22T03:52:06.481Z,4.03
2023-03-22T03:54:52.585Z,2.42
2023-03-22T03:57:38.019Z,2.42
2023-03-22T04:00:23.665Z,2.33
2023-03-22T04:03:10.124Z,2.15
2023-03-22T04:05:55.591Z,2.40
2023-03-22T04:08:40.955Z,2.05
2023-03-22T04:11:26.368Z,2.50
2023-03-22T04:14:11.893Z,2.38
2023-03-22T04:16:57.456Z,2.70
2023-03-22T04:19:43.430Z,1.85
2023-03-22T04:22:28.811Z,2.50
2023-03-22T04:25:16.053Z,3.22
2023-03-22T04:28:01.966Z,3.05
2023-03-22T04:30:48.190Z,1.73
2023-03-22T04:33:33.727Z,2.22
2023-03-22T04:36:19.133Z,1.33
2023-03-22T04:39:10.057Z,1.65
2023-03-22T04:41:55.775Z,2.88
2023-03-22T04:44:41.186Z,3.97
2023-03-22T04:47:26.849Z,4.05
2023-03-22T04:50:12.719Z,2.40
2023-03-22T04:52:58.206Z,2.92
2023-03-22T04:55:43.532Z,1.88
2023-03-22T04:58:29.171Z,2.65
2023-03-22T05:01:18.219Z,4.40
2023-03-22T05:04:04.447Z,3.10
2023-03-22T05:06:50.190Z,4.55
2023-03-22T05:09:35.619Z,4.90
2023-03-22T05:12:21.063Z,4.30
2023-03-22T05:15:08.056Z,2.22
2023-03-22T05:17:54.067Z,2.42
2023-03-22T05:20:41.180Z,2.17
2023-03-22T05:23:27.011Z,1.73
2023-03-22T05:26:13.531Z,2.10
2023-03-22T05:28:59.246Z,1.63
2023-03-22T05:31:44.937Z,1.70
2023-03-22T05:34:30.490Z,1.60
2023-03-22T05:37:16.459Z,2.42
2023-03-22T05:40:02.594Z,3.20
2023-03-22T05:42:48.501Z,1.40
2023-03-22T05:45:36.879Z,2.65
2023-03-22T05:48:22.673Z,1.35
2023-03-22T05:51:12.418Z,1.27
2023-03-22T05:53:57.862Z,2.03
2023-03-22T05:56:43.659Z,3.92
2023-03-22T05:59:28.945Z,2.28
2023-03-22T06:02:14.518Z,3.70
2023-03-22T06:05:00.424Z,3.35
2023-03-22T06:07:45.779Z,2.95
2023-03-22T06:10:31.056Z,2.38
2023-03-22T06:13:17.506Z,3.05
2023-03-22T06:16:04.855Z,1.52
2023-03-22T06:18:50.764Z,2.05
2023-03-22T06:21:36.766Z,1.73
2023-03-22T06:24:22.477Z,2.03
2023-03-22T06:27:08.431Z,1.90
2023-03-22T06:29:53.860Z,3.60
2023-03-22T06:32:39.252Z,2.22
2023-03-22T06:35:24.918Z,1.45
2023-03-22T06:38:10.771Z,1.60
2023-03-22T06:40:56.547Z,1.98
2023-03-22T06:43:42.276Z,2.85
2023-03-22T06:46:27.680Z,1.80
2023-03-22T06:49:13.044Z,2.30
2023-03-22T06:51:58.428Z,1.92
2023-03-22T06:54:43.818Z,3.17
2023-03-22T06:57:29.204Z,2.80
2023-03-22T07:00:15.584Z,2.50
2023-03-22T07:03:01.184Z,1.13
2023-03-22T07:05:46.653Z,1.73
2023-03-22T07:08:32.442Z,1.88
2023-03-22T07:11:18.131Z,2.22
2023-03-22T07:14:03.711Z,2.00
2023-03-22T07:16:49.901Z,1.45
2023-03-22T07:19:36.026Z,1.42
2023-03-22T07:22:21.651Z,2.10
2023-03-22T07:25:07.757Z,2.10
2023-03-22T07:27:53.075Z,1.90
2023-03-22T07:30:40.019Z,1.88
2023-03-22T07:33:25.845Z,3.13
2023-03-22T07:36:12.133Z,1.83
2023-03-22T07:39:01.663Z,3.22
2023-03-22T07:41:47.419Z,2.53
2023-03-22T07:44:36.913Z,2.47
2023-03-22T07:47:39.539Z,1.92
2023-03-22T07:50:26.396Z,1.50
2023-03-22T07:53:12.681Z,0.93
2023-03-22T07:55:58.032Z,1.15
2023-03-22T07:58:43.641Z,1.90
2023-03-22T08:01:29.221Z,1.67
2023-03-22T08:04:14.508Z,1.60
2023-03-22T08:06:59.866Z,2.00
2023-03-22T08:09:45.976Z,1.45
2023-03-22T08:12:31.856Z,1.45
2023-03-22T08:15:17.249Z,1.35
2023-03-22T08:18:02.728Z,1.15
2023-03-22T08:20:56.567Z,1.77
2023-03-22T08:23:42.619Z,1.45
2023-03-22T08:26:28.670Z,1.70
2023-03-22T08:29:14.248Z,0.73
2023-03-22T08:31:59.832Z,1.83
2023-03-22T08:34:45.311Z,2.13
2023-03-22T08:37:30.777Z,0.90
2023-03-22T08:40:16.198Z,1.40
2023-03-22T08:43:01.584Z,2.05
2023-03-22T08:45:46.955Z,1.75
2023-03-22T08:48:32.595Z,2.38
2023-03-22T08:51:23.022Z,0.98
2023-03-22T08:54:09.076Z,1.75
2023-03-22T08:56:54.781Z,1.10
2023-03-22T08:59:40.465Z,1.50
2023-03-22T09:02:26.457Z,1.45
2023-03-22T09:05:12.444Z,1.60
2023-03-22T09:08:05.916Z,1.05
2023-03-22T09:10:52.416Z,1.30
2023-03-22T09:13:38.629Z,1.58
2023-03-22T09:16:24.326Z,1.20
2023-03-22T09:19:10.118Z,1.35
2023-03-22T09:21:56.056Z,0.75
2023-03-22T09:24:41.522Z,0.95
2023-03-22T09:27:26.753Z,1.20
2023-03-22T09:30:12.974Z,1.60
2023-03-22T09:32:59.036Z,1.25
2023-03-22T09:35:44.853Z,1.00
2023-03-22T09:38:30.512Z,0.63
2023-03-22T09:41:38.334Z,0.50
2023-03-22T09:44:50.264Z,0.43
2023-03-22T09:50:33.065Z,2.05
2023-03-22T09:53:21.464Z,0.60
2023-03-22T09:56:26.153Z,0.77
2023-03-22T09:59:52.760Z,0.60
2023-03-22T10:03:09.424Z,0.65
2023-03-22T10:06:20.884Z,0.60
2023-03-22T10:10:06.459Z,0.80
2023-03-22T10:13:31.161Z,0.57
2023-03-22T10:16:28.893Z,0.95
2023-03-22T10:19:28.100Z,0.70
2023-03-22T10:22:19.656Z,0.60
2023-03-22T10:25:08.690Z,0.57
2023-03-22T10:27:55.133Z,0.50
2023-03-22T10:30:43.139Z,0.95
2023-03-22T10:33:51.815Z,0.38
2023-03-22T10:36:40.776Z,1.00
2023-03-22T10:39:41.166Z,0.73
2023-03-22T10:42:30.360Z,0.70
2023-03-22T10:45:16.451Z,0.95
2023-03-22T10:48:19.184Z,0.40
2023-03-22T10:51:06.679Z,0.47
2023-03-22T10:53:55.635Z,0.30
2023-03-22T10:56:41.121Z,0.80
2023-03-22T10:59:46.919Z,0.40
2023-03-22T11:02:33.076Z,0.32
2023-03-22T11:05:30.239Z,0.40
2023-03-22T11:08:15.634Z,0.45
2023-03-22T11:11:02.668Z,0.80
2023-03-22T11:14:16.509Z,0.20
2023-03-22T11:17:24.419Z,0.40
2023-03-22T11:20:19.473Z,0.10
2023-03-22T11:23:05.956Z,0.22
2023-03-22T11:25:56.932Z,0.22
2023-03-22T11:28:50.987Z,0.20
2023-03-22T11:32:26.704Z,0.50
2023-03-22T11:35:22.725Z,0.43
2023-03-22T11:38:40.942Z,0.30
2023-03-22T11:41:31.075Z,0.50
2023-03-22T11:44:20.760Z,0.25
2023-03-22T11:47:08.783Z,0.52
2023-03-22T11:50:09.432Z,0.30
2023-03-22T11:52:55.819Z,0.47
2023-03-22T11:55:43.616Z,0.22
2023-03-22T11:59:14.367Z,0.40
2023-03-22T12:02:50.859Z,0.50
2023-03-22T12:05:44.409Z,0.30
2023-03-22T12:09:03.971Z,0.57
2023-03-22T12:12:19.644Z,1.58
2023-03-22T12:15:28.782Z,0.30
2023-03-22T12:18:38.443Z,0.93
2023-03-22T12:21:24.009Z,0.55
2023-03-22T12:24:31.605Z,0.20
2023-03-22T12:27:36.147Z,0.50
2023-03-22T12:30:33.619Z,0.40
2023-03-22T12:33:40.525Z,0.32
2023-03-22T12:36:47.769Z,0.30
2023-03-22T12:39:43.286Z,0.43
2023-03-22T12:43:00.318Z,0.20
2023-03-22T12:45:58.160Z,0.40
2023-03-22T12:49:01.280Z,0.10
2023-03-22T12:51:48.996Z,0.20
2023-03-22T12:54:35.777Z,0.30
2023-03-22T12:57:21.374Z,0.30
2023-03-22T13:00:15.242Z,0.13
2023-03-22T13:03:28.024Z,0.55
2023-03-22T13:06:43.039Z,0.40
2023-03-22T13:09:28.484Z,0.40
2023-03-22T13:12:17.102Z,0.55
2023-03-22T13:15:13.266Z,0.20
2023-03-22T13:18:00.149Z,0.20
2023-03-22T13:21:19.638Z,0.30
2023-03-22T13:24:08.264Z,0.20
2023-03-22T13:26:55.362Z,0.55
2023-03-22T13:29:41.766Z,0.28
2023-03-22T13:32:32.595Z,0.30
2023-03-22T13:35:54.413Z,0.30
2023-03-22T13:38:43.420Z,0.52
2023-03-22T13:41:35.143Z,0.30
2023-03-22T13:44:38.038Z,0.30
2023-03-22T13:47:40.582Z,0.40
2023-03-22T13:50:31.096Z,0.30
2023-03-22T13:53:28.840Z,0.43
2023-03-22T13:56:40.730Z,0.50
2023-03-22T13:59:26.190Z,0.45
2023-03-22T14:02:34.888Z,0.68
2023-03-22T14:05:24.697Z,0.63
2023-03-22T14:08:25.016Z,0.70
2023-03-22T14:11:36.640Z,0.30
2023-03-22T14:14:36.461Z,0.20
2023-03-22T14:18:03.048Z,0.30
2023-03-22T14:21:13.996Z,0.20
